sensor_id;sensor_type;location;lat;lon;timestamp;pressure;altitude;pressure_sealevel;temperature;humidity
16016;BME280;8112;53.592;10.184;2022-07-09T00:00:15;102237.09;;;16.00;100.00
16016;BME280;8112;53.592;10.184;2022-07-09T00:05:18;102243.53;;;15.96;100.00
16016;BME280;8112;53.592;10.184;2022-07-09T00:10:20;102239.34;;;15.92;100.00
16016;BME280;8112;53.592;10.184;2022-07-09T00:15:22;102225.59;;;15.84;100.00
16016;BME280;8112;53.592;10.184;2022-07-09T00:20:26;102226.91;;;15.76;100.00
16016;BME280;8112;53.592;10.184;2022-07-09T00:25:28;102224.25;;;15.76;100.00
16016;BME280;8112;53.592;10.184;2022-07-09T00:30:30;102210.63;;;15.66;100.00
16016;BME280;8112;53.592;10.184;2022-07-09T00:35:34;102204.00;;;15.74;100.00
16016;BME280;8112;53.592;10.184;2022-07-09T00:40:35;102197.66;;;15.76;100.00
16016;BME280;8112;53.592;10.184;2022-07-09T00:45:37;102195.41;;;15.85;100.00
16016;BME280;8112;53.592;10.184;2022-07-09T00:50:41;102193.22;;;15.93;100.00
16016;BME280;8112;53.592;10.184;2022-07-09T00:55:43;102194.25;;;15.74;100.00
16016;BME280;8112;53.592;10.184;2022-07-09T01:00:45;102195.28;;;15.72;100.00
16016;BME280;8112;53.592;10.184;2022-07-09T01:05:48;102209.13;;;15.77;100.00
16016;BME280;8112;53.592;10.184;2022-07-09T01:10:51;102200.91;;;15.81;100.00
16016;BME280;8112;53.592;10.184;2022-07-09T01:15:53;102193.19;;;15.77;100.00
16016;BME280;8112;53.592;10.184;2022-07-09T01:20:56;102186.34;;;15.89;100.00
16016;BME280;8112;53.592;10.184;2022-07-09T01:25:58;102193.03;;;15.96;100.00
16016;BME280;8112;53.592;10.184;2022-07-09T01:31:00;102191.13;;;15.98;100.00
16016;BME280;8112;53.592;10.184;2022-07-09T01:36:03;102177.72;;;16.00;100.00
16016;BME280;8112;53.592;10.184;2022-07-09T01:41:05;102183.41;;;15.93;100.00
16016;BME280;8112;53.592;10.184;2022-07-09T01:46:07;102180.69;;;15.95;100.00
16016;BME280;8112;53.592;10.184;2022-07-09T01:51:12;102166.25;;;15.99;100.00
16016;BME280;8112;53.592;10.184;2022-07-09T01:56:13;102157.50;;;15.97;100.00
16016;BME280;8112;53.592;10.184;2022-07-09T02:01:15;102154.09;;;15.95;100.00
16016;BME280;8112;53.592;10.184;2022-07-09T02:06:18;102153.63;;;15.87;100.00
16016;BME280;8112;53.592;10.184;2022-07-09T02:11:20;102139.09;;;15.94;100.00
16016;BME280;8112;53.592;10.184;2022-07-09T02:16:22;102140.69;;;15.96;100.00
16016;BME280;8112;53.592;10.184;2022-07-09T02:21:25;102137.09;;;15.98;100.00
16016;BME280;8112;53.592;10.184;2022-07-09T02:26:27;102138.97;;;15.95;100.00
16016;BME280;8112;53.592;10.184;2022-07-09T02:31:31;102137.13;;;15.81;100.00
16016;BME280;8112;53.592;10.184;2022-07-09T02:36:34;102129.22;;;15.96;100.00
16016;BME280;8112;53.592;10.184;2022-07-09T02:41:36;102124.66;;;15.98;100.00
16016;BME280;8112;53.592;10.184;2022-07-09T02:46:38;102125.13;;;15.90;100.00
16016;BME280;8112;53.592;10.184;2022-07-09T02:51:41;102127.31;;;15.98;100.00
16016;BME280;8112;53.592;10.184;2022-07-09T02:56:43;102133.41;;;16.00;100.00
16016;BME280;8112;53.592;10.184;2022-07-09T03:01:45;102128.25;;;15.97;100.00
16016;BME280;8112;53.592;10.184;2022-07-09T03:06:50;102130.81;;;15.99;100.00
16016;BME280;8112;53.592;10.184;2022-07-09T03:11:54;102127.59;;;15.93;100.00
16016;BME280;8112;53.592;10.184;2022-07-09T03:16:55;102122.19;;;15.79;100.00
16016;BME280;8112;53.592;10.184;2022-07-09T03:21:58;102111.09;;;15.87;100.00
16016;BME280;8112;53.592;10.184;2022-07-09T03:27:00;102100.59;;;15.85;100.00
16016;BME280;8112;53.592;10.184;2022-07-09T03:32:02;102100.09;;;15.78;100.00
16016;BME280;8112;53.592;10.184;2022-07-09T03:37:05;102095.00;;;15.90;100.00
16016;BME280;8112;53.592;10.184;2022-07-09T03:42:07;102099.38;;;15.91;100.00
16016;BME280;8112;53.592;10.184;2022-07-09T03:47:09;102088.19;;;16.00;100.00
16016;BME280;8112;53.592;10.184;2022-07-09T03:52:12;102085.34;;;16.03;100.00
16016;BME280;8112;53.592;10.184;2022-07-09T03:57:16;102088.56;;;16.08;100.00
16016;BME280;8112;53.592;10.184;2022-07-09T04:02:18;102076.81;;;16.13;100.00
16016;BME280;8112;53.592;10.184;2022-07-09T04:07:21;102080.16;;;15.86;100.00
16016;BME280;8112;53.592;10.184;2022-07-09T04:12:22;102077.38;;;16.03;100.00
16016;BME280;8112;53.592;10.184;2022-07-09T04:17:24;102068.63;;;16.01;100.00
16016;BME280;8112;53.592;10.184;2022-07-09T04:22:27;102067.03;;;16.13;100.00
16016;BME280;8112;53.592;10.184;2022-07-09T04:27:29;102067.31;;;16.23;100.00
16016;BME280;8112;53.592;10.184;2022-07-09T04:32:31;102067.69;;;16.17;100.00
16016;BME280;8112;53.592;10.184;2022-07-09T04:37:34;102073.22;;;16.14;100.00
16016;BME280;8112;53.592;10.184;2022-07-09T04:42:36;102069.41;;;16.18;100.00
16016;BME280;8112;53.592;10.184;2022-07-09T04:47:38;102058.56;;;16.06;100.00
16016;BME280;8112;53.592;10.184;2022-07-09T04:52:41;102058.00;;;16.30;100.00
16016;BME280;8112;53.592;10.184;2022-07-09T04:57:43;102063.50;;;16.27;100.00
16016;BME280;8112;53.592;10.184;2022-07-09T05:02:46;102057.53;;;16.23;100.00
16016;BME280;8112;53.592;10.184;2022-07-09T05:07:50;102064.56;;;16.39;100.00
16016;BME280;8112;53.592;10.184;2022-07-09T05:12:51;102062.66;;;16.41;100.00
16016;BME280;8112;53.592;10.184;2022-07-09T05:17:53;102058.38;;;16.53;100.00
16016;BME280;8112;53.592;10.184;2022-07-09T05:22:56;102057.22;;;16.57;100.00
16016;BME280;8112;53.592;10.184;2022-07-09T05:27:58;102057.41;;;16.54;100.00
16016;BME280;8112;53.592;10.184;2022-07-09T05:33:00;102065.09;;;16.59;100.00
16016;BME280;8112;53.592;10.184;2022-07-09T05:38:03;102055.28;;;16.74;100.00
16016;BME280;8112;53.592;10.184;2022-07-09T05:43:07;102049.53;;;16.80;100.00
16016;BME280;8112;53.592;10.184;2022-07-09T05:48:09;102046.81;;;16.81;100.00
16016;BME280;8112;53.592;10.184;2022-07-09T05:53:13;102044.09;;;16.96;100.00
16016;BME280;8112;53.592;10.184;2022-07-09T05:58:15;102045.13;;;16.93;100.00
16016;BME280;8112;53.592;10.184;2022-07-09T06:03:17;102038.13;;;16.92;100.00
16016;BME280;8112;53.592;10.184;2022-07-09T06:08:20;102049.03;;;17.02;100.00
16016;BME280;8112;53.592;10.184;2022-07-09T06:13:22;102041.28;;;16.85;100.00
16016;BME280;8112;53.592;10.184;2022-07-09T06:18:23;102042.91;;;16.87;100.00
16016;BME280;8112;53.592;10.184;2022-07-09T06:23:26;102035.69;;;16.75;100.00
16016;BME280;8112;53.592;10.184;2022-07-09T06:28:28;102038.06;;;16.79;100.00
16016;BME280;8112;53.592;10.184;2022-07-09T06:33:30;102033.81;;;17.04;100.00
16016;BME280;8112;53.592;10.184;2022-07-09T06:38:33;102028.88;;;17.26;100.00
16016;BME280;8112;53.592;10.184;2022-07-09T06:43:56;102043.41;;;17.47;100.00
16016;BME280;8112;53.592;10.184;2022-07-09T06:49:01;102040.44;;;17.52;100.00
16016;BME280;8112;53.592;10.184;2022-07-09T06:54:04;102027.56;;;17.59;100.00
16016;BME280;8112;53.592;10.184;2022-07-09T06:59:06;102024.25;;;17.68;100.00
16016;BME280;8112;53.592;10.184;2022-07-09T07:04:08;102026.81;;;17.83;100.00
16016;BME280;8112;53.592;10.184;2022-07-09T07:09:13;102017.13;;;17.69;100.00
16016;BME280;8112;53.592;10.184;2022-07-09T07:14:16;102011.84;;;17.93;100.00
16016;BME280;8112;53.592;10.184;2022-07-09T07:19:18;102013.34;;;18.23;100.00
16016;BME280;8112;53.592;10.184;2022-07-09T07:24:22;102010.19;;;18.18;100.00
16016;BME280;8112;53.592;10.184;2022-07-09T07:29:24;102003.59;;;18.35;100.00
16016;BME280;8112;53.592;10.184;2022-07-09T07:34:26;102007.97;;;18.49;100.00
16016;BME280;8112;53.592;10.184;2022-07-09T07:39:30;102009.88;;;18.47;100.00
16016;BME280;8112;53.592;10.184;2022-07-09T07:44:31;102007.06;;;18.61;100.00
16016;BME280;8112;53.592;10.184;2022-07-09T07:49:33;101996.94;;;18.78;100.00
16016;BME280;8112;53.592;10.184;2022-07-09T07:54:36;101993.81;;;19.44;100.00
16016;BME280;8112;53.592;10.184;2022-07-09T07:59:38;101982.16;;;19.57;100.00
16016;BME280;8112;53.592;10.184;2022-07-09T08:04:40;101972.66;;;19.30;100.00
16016;BME280;8112;53.592;10.184;2022-07-09T08:09:43;101973.94;;;20.05;100.00
16016;BME280;8112;53.592;10.184;2022-07-09T08:14:44;101965.97;;;21.36;100.00
16016;BME280;8112;53.592;10.184;2022-07-09T08:19:46;101960.44;;;21.59;100.00
16016;BME280;8112;53.592;10.184;2022-07-09T08:24:49;101966.03;;;20.27;100.00
16016;BME280;8112;53.592;10.184;2022-07-09T08:29:54;101959.66;;;19.36;100.00
16016;BME280;8112;53.592;10.184;2022-07-09T08:34:56;101970.38;;;18.76;100.00
16016;BME280;8112;53.592;10.184;2022-07-09T08:40:10;101972.88;;;18.66;100.00
16016;BME280;8112;53.592;10.184;2022-07-09T08:45:12;101969.63;;;18.74;100.00
16016;BME280;8112;53.592;10.184;2022-07-09T08:50:16;101970.72;;;20.46;100.00
16016;BME280;8112;53.592;10.184;2022-07-09T08:55:21;101961.03;;;20.66;100.00
16016;BME280;8112;53.592;10.184;2022-07-09T09:00:23;101962.28;;;20.62;100.00
16016;BME280;8112;53.592;10.184;2022-07-09T09:05:25;101953.59;;;21.45;100.00
16016;BME280;8112;53.592;10.184;2022-07-09T09:10:28;101944.94;;;21.10;100.00
16016;BME280;8112;53.592;10.184;2022-07-09T09:15:30;101928.41;;;22.49;100.00
16016;BME280;8112;53.592;10.184;2022-07-09T09:20:32;101922.09;;;23.75;100.00
16016;BME280;8112;53.592;10.184;2022-07-09T09:25:36;101928.94;;;22.33;100.00
16016;BME280;8112;53.592;10.184;2022-07-09T09:30:41;101941.88;;;21.15;100.00
16016;BME280;8112;53.592;10.184;2022-07-09T09:35:44;101931.13;;;20.61;100.00
16016;BME280;8112;53.592;10.184;2022-07-09T09:40:47;101921.66;;;20.78;100.00
16016;BME280;8112;53.592;10.184;2022-07-09T09:45:52;101921.84;;;21.19;100.00
16016;BME280;8112;53.592;10.184;2022-07-09T09:51:00;101925.13;;;21.23;100.00
16016;BME280;8112;53.592;10.184;2022-07-09T09:56:04;101915.09;;;20.82;100.00
16016;BME280;8112;53.592;10.184;2022-07-09T10:01:07;101922.72;;;20.98;100.00
16016;BME280;8112;53.592;10.184;2022-07-09T10:06:12;101909.22;;;21.10;100.00
16016;BME280;8112;53.592;10.184;2022-07-09T10:11:16;101908.44;;;22.32;100.00
16016;BME280;8112;53.592;10.184;2022-07-09T10:16:17;101906.47;;;23.78;100.00
16016;BME280;8112;53.592;10.184;2022-07-09T10:21:34;101900.78;;;23.26;100.00
16016;BME280;8112;53.592;10.184;2022-07-09T10:26:46;101904.38;;;21.87;100.00
16016;BME280;8112;53.592;10.184;2022-07-09T10:31:48;101900.25;;;21.73;100.00
16016;BME280;8112;53.592;10.184;2022-07-09T10:36:57;101898.72;;;22.60;100.00
16016;BME280;8112;53.592;10.184;2022-07-09T10:42:05;101898.94;;;23.06;100.00
16016;BME280;8112;53.592;10.184;2022-07-09T10:47:08;101902.28;;;23.94;100.00
16016;BME280;8112;53.592;10.184;2022-07-09T10:52:10;101882.59;;;24.40;100.00
16016;BME280;8112;53.592;10.184;2022-07-09T10:57:14;101865.41;;;25.30;100.00
16016;BME280;8112;53.592;10.184;2022-07-09T11:02:20;101876.47;;;24.01;100.00
16016;BME280;8112;53.592;10.184;2022-07-09T11:07:22;101875.22;;;24.86;100.00
16016;BME280;8112;53.592;10.184;2022-07-09T11:12:25;101882.19;;;24.53;100.00
16016;BME280;8112;53.592;10.184;2022-07-09T11:17:27;101879.97;;;24.66;100.00
16016;BME280;8112;53.592;10.184;2022-07-09T11:22:29;101867.00;;;24.70;100.00
16016;BME280;8112;53.592;10.184;2022-07-09T11:27:40;101872.41;;;24.33;100.00
16016;BME280;8112;53.592;10.184;2022-07-09T11:32:42;101868.75;;;23.32;100.00
16016;BME280;8112;53.592;10.184;2022-07-09T11:37:45;101891.19;;;22.15;100.00
16016;BME280;8112;53.592;10.184;2022-07-09T11:42:48;101876.34;;;21.07;100.00
16016;BME280;8112;53.592;10.184;2022-07-09T11:48:02;101884.00;;;21.12;100.00
16016;BME280;8112;53.592;10.184;2022-07-09T11:53:05;101889.53;;;21.73;100.00
16016;BME280;8112;53.592;10.184;2022-07-09T11:58:08;101872.09;;;22.08;100.00
16016;BME280;8112;53.592;10.184;2022-07-09T12:03:10;101870.25;;;22.77;100.00
16016;BME280;8112;53.592;10.184;2022-07-09T12:08:12;101875.41;;;22.71;100.00
16016;BME280;8112;53.592;10.184;2022-07-09T12:13:15;101865.97;;;23.14;100.00
16016;BME280;8112;53.592;10.184;2022-07-09T12:18:17;101879.09;;;22.60;100.00
16016;BME280;8112;53.592;10.184;2022-07-09T12:23:19;101875.34;;;22.12;100.00
16016;BME280;8112;53.592;10.184;2022-07-09T12:28:22;101889.63;;;22.22;100.00
16016;BME280;8112;53.592;10.184;2022-07-09T12:33:24;101883.56;;;22.20;100.00
16016;BME280;8112;53.592;10.184;2022-07-09T12:38:27;101884.97;;;22.44;100.00
16016;BME280;8112;53.592;10.184;2022-07-09T12:43:30;101874.94;;;22.75;100.00
16016;BME280;8112;53.592;10.184;2022-07-09T12:48:32;101864.31;;;22.94;100.00
16016;BME280;8112;53.592;10.184;2022-07-09T12:53:33;101866.91;;;22.56;100.00
16016;BME280;8112;53.592;10.184;2022-07-09T12:58:36;101878.03;;;22.31;100.00
16016;BME280;8112;53.592;10.184;2022-07-09T13:03:38;101876.91;;;22.44;100.00
16016;BME280;8112;53.592;10.184;2022-07-09T13:08:40;101881.59;;;22.61;100.00
16016;BME280;8112;53.592;10.184;2022-07-09T13:13:43;101871.69;;;22.42;100.00
16016;BME280;8112;53.592;10.184;2022-07-09T13:18:45;101884.13;;;22.43;100.00
16016;BME280;8112;53.592;10.184;2022-07-09T13:23:47;101895.69;;;22.04;100.00
16016;BME280;8112;53.592;10.184;2022-07-09T13:28:50;101889.94;;;21.68;100.00
16016;BME280;8112;53.592;10.184;2022-07-09T13:33:52;101881.53;;;21.30;100.00
16016;BME280;8112;53.592;10.184;2022-07-09T13:38:54;101883.06;;;21.54;100.00
16016;BME280;8112;53.592;10.184;2022-07-09T13:43:57;101874.34;;;22.23;100.00
16016;BME280;8112;53.592;10.184;2022-07-09T13:48:59;101879.88;;;22.31;100.00
16016;BME280;8112;53.592;10.184;2022-07-09T13:54:00;101896.53;;;21.64;100.00
16016;BME280;8112;53.592;10.184;2022-07-09T13:59:03;101887.28;;;20.95;100.00
16016;BME280;8112;53.592;10.184;2022-07-09T14:04:05;101890.28;;;20.80;100.00
16016;BME280;8112;53.592;10.184;2022-07-09T14:09:07;101893.09;;;20.67;100.00
16016;BME280;8112;53.592;10.184;2022-07-09T14:14:10;101891.94;;;20.60;100.00
16016;BME280;8112;53.592;10.184;2022-07-09T14:19:11;101893.72;;;20.92;100.00
16016;BME280;8112;53.592;10.184;2022-07-09T14:24:13;101894.78;;;21.01;100.00
16016;BME280;8112;53.592;10.184;2022-07-09T14:29:16;101873.91;;;21.26;100.00
16016;BME280;8112;53.592;10.184;2022-07-09T14:34:18;101873.03;;;21.46;100.00
16016;BME280;8112;53.592;10.184;2022-07-09T14:39:21;101880.13;;;21.88;100.00
16016;BME280;8112;53.592;10.184;2022-07-09T14:44:24;101873.44;;;21.20;100.00
16016;BME280;8112;53.592;10.184;2022-07-09T14:49:26;101860.81;;;20.80;100.00
16016;BME280;8112;53.592;10.184;2022-07-09T14:54:30;101882.06;;;20.60;100.00
16016;BME280;8112;53.592;10.184;2022-07-09T14:59:33;101869.19;;;20.75;100.00
16016;BME280;8112;53.592;10.184;2022-07-09T15:04:35;101879.78;;;20.88;100.00
16016;BME280;8112;53.592;10.184;2022-07-09T15:09:37;101879.19;;;21.37;100.00
16016;BME280;8112;53.592;10.184;2022-07-09T15:14:40;101892.78;;;20.28;100.00
16016;BME280;8112;53.592;10.184;2022-07-09T15:19:42;101893.22;;;20.00;100.00
16016;BME280;8112;53.592;10.184;2022-07-09T15:24:44;101893.22;;;19.77;100.00
16016;BME280;8112;53.592;10.184;2022-07-09T15:29:47;101905.38;;;19.82;100.00
16016;BME280;8112;53.592;10.184;2022-07-09T15:34:48;101882.50;;;20.98;97.81
16016;BME280;8112;53.592;10.184;2022-07-09T15:39:50;101874.19;;;22.93;81.74
16016;BME280;8112;53.592;10.184;2022-07-09T15:44:54;101877.72;;;21.23;84.69
16016;BME280;8112;53.592;10.184;2022-07-09T15:49:55;101869.97;;;20.01;91.99
16016;BME280;8112;53.592;10.184;2022-07-09T15:54:57;101871.81;;;19.66;95.33
16016;BME280;8112;53.592;10.184;2022-07-09T16:00:00;101859.13;;;19.00;100.00
16016;BME280;8112;53.592;10.184;2022-07-09T16:05:06;101876.94;;;19.23;100.00
16016;BME280;8112;53.592;10.184;2022-07-09T16:10:09;101876.66;;;19.04;100.00
16016;BME280;8112;53.592;10.184;2022-07-09T16:15:12;101881.88;;;19.28;100.00
16016;BME280;8112;53.592;10.184;2022-07-09T16:20:14;101889.06;;;19.50;100.00
16016;BME280;8112;53.592;10.184;2022-07-09T16:25:16;101883.50;;;20.32;100.00
16016;BME280;8112;53.592;10.184;2022-07-09T16:30:20;101901.69;;;19.14;100.00
16016;BME280;8112;53.592;10.184;2022-07-09T16:35:22;101892.06;;;18.76;100.00
16016;BME280;8112;53.592;10.184;2022-07-09T16:40:23;101906.00;;;18.44;100.00
16016;BME280;8112;53.592;10.184;2022-07-09T16:45:26;101887.88;;;18.49;100.00
16016;BME280;8112;53.592;10.184;2022-07-09T16:50:28;101892.56;;;18.21;100.00
16016;BME280;8112;53.592;10.184;2022-07-09T16:55:30;101896.00;;;18.10;100.00
16016;BME280;8112;53.592;10.184;2022-07-09T17:00:33;101902.09;;;17.99;100.00
16016;BME280;8112;53.592;10.184;2022-07-09T17:05:35;101914.31;;;17.77;100.00
16016;BME280;8112;53.592;10.184;2022-07-09T17:10:36;101914.94;;;17.68;100.00
16016;BME280;8112;53.592;10.184;2022-07-09T17:15:40;101916.56;;;17.58;100.00
16016;BME280;8112;53.592;10.184;2022-07-09T17:20:42;101907.81;;;17.69;100.00
16016;BME280;8112;53.592;10.184;2022-07-09T17:25:43;101900.56;;;17.71;100.00
16016;BME280;8112;53.592;10.184;2022-07-09T17:30:47;101909.94;;;17.63;100.00
16016;BME280;8112;53.592;10.184;2022-07-09T17:35:48;101906.75;;;17.45;100.00
16016;BME280;8112;53.592;10.184;2022-07-09T17:40:52;101912.63;;;17.50;100.00
16016;BME280;8112;53.592;10.184;2022-07-09T17:45:55;101903.56;;;17.53;100.00
16016;BME280;8112;53.592;10.184;2022-07-09T17:50:57;101909.53;;;17.57;100.00
16016;BME280;8112;53.592;10.184;2022-07-09T17:55:58;101906.53;;;17.48;100.00
16016;BME280;8112;53.592;10.184;2022-07-09T18:01:01;101903.97;;;17.34;100.00
16016;BME280;8112;53.592;10.184;2022-07-09T18:06:04;101907.19;;;17.39;100.00
16016;BME280;8112;53.592;10.184;2022-07-09T18:11:05;101895.59;;;17.40;100.00
16016;BME280;8112;53.592;10.184;2022-07-09T18:16:08;101892.91;;;17.27;100.00
16016;BME280;8112;53.592;10.184;2022-07-09T18:21:10;101885.44;;;17.19;100.00
16016;BME280;8112;53.592;10.184;2022-07-09T18:26:13;101887.25;;;17.19;100.00
16016;BME280;8112;53.592;10.184;2022-07-09T18:31:16;101892.88;;;17.01;100.00
16016;BME280;8112;53.592;10.184;2022-07-09T18:36:18;101886.06;;;17.10;100.00
16016;BME280;8112;53.592;10.184;2022-07-09T18:41:19;101890.28;;;16.87;100.00
16016;BME280;8112;53.592;10.184;2022-07-09T18:46:23;101904.50;;;16.73;100.00
16016;BME280;8112;53.592;10.184;2022-07-09T18:51:24;101890.59;;;16.55;100.00
16016;BME280;8112;53.592;10.184;2022-07-09T18:56:26;101905.19;;;16.49;100.00
16016;BME280;8112;53.592;10.184;2022-07-09T19:01:31;101896.25;;;16.50;100.00
16016;BME280;8112;53.592;10.184;2022-07-09T19:06:33;101904.63;;;16.44;100.00
16016;BME280;8112;53.592;10.184;2022-07-09T19:11:35;101902.03;;;16.29;100.00
16016;BME280;8112;53.592;10.184;2022-07-09T19:16:39;101898.59;;;16.27;100.00
16016;BME280;8112;53.592;10.184;2022-07-09T19:21:40;101907.97;;;16.33;100.00
16016;BME280;8112;53.592;10.184;2022-07-09T19:26:42;101915.69;;;16.23;100.00
16016;BME280;8112;53.592;10.184;2022-07-09T19:31:46;101912.72;;;16.00;100.00
16016;BME280;8112;53.592;10.184;2022-07-09T19:37:05;101909.50;;;15.95;100.00
16016;BME280;8112;53.592;10.184;2022-07-09T19:42:06;101912.53;;;15.89;100.00
16016;BME280;8112;53.592;10.184;2022-07-09T19:47:10;101896.22;;;15.95;100.00
16016;BME280;8112;53.592;10.184;2022-07-09T19:52:11;101897.81;;;15.83;100.00
16016;BME280;8112;53.592;10.184;2022-07-09T19:57:13;101907.41;;;16.00;100.00
16016;BME280;8112;53.592;10.184;2022-07-09T20:02:16;101909.59;;;15.93;100.00
16016;BME280;8112;53.592;10.184;2022-07-09T20:07:18;101903.88;;;15.85;100.00
16016;BME280;8112;53.592;10.184;2022-07-09T20:12:23;101919.06;;;15.68;100.00
16016;BME280;8112;53.592;10.184;2022-07-09T20:17:27;101916.97;;;15.00;100.00
16016;BME280;8112;53.592;10.184;2022-07-09T20:22:28;101906.50;;;14.66;100.00
16016;BME280;8112;53.592;10.184;2022-07-09T20:27:33;101910.34;;;14.60;100.00
16016;BME280;8112;53.592;10.184;2022-07-09T20:32:36;101906.69;;;14.63;100.00
16016;BME280;8112;53.592;10.184;2022-07-09T20:37:38;101912.41;;;14.71;100.00
16016;BME280;8112;53.592;10.184;2022-07-09T20:42:40;101903.38;;;14.75;100.00
16016;BME280;8112;53.592;10.184;2022-07-09T20:47:43;101904.97;;;14.78;100.00
16016;BME280;8112;53.592;10.184;2022-07-09T20:52:45;101894.78;;;14.86;100.00
16016;BME280;8112;53.592;10.184;2022-07-09T20:57:47;101902.94;;;14.98;100.00
16016;BME280;8112;53.592;10.184;2022-07-09T21:02:50;101895.72;;;15.00;100.00
16016;BME280;8112;53.592;10.184;2022-07-09T21:07:52;101885.59;;;15.06;100.00
16016;BME280;8112;53.592;10.184;2022-07-09T21:12:53;101883.63;;;15.10;100.00
16016;BME280;8112;53.592;10.184;2022-07-09T21:17:56;101889.63;;;15.14;100.00
16016;BME280;8112;53.592;10.184;2022-07-09T21:23:15;101895.56;;;15.03;100.00
16016;BME280;8112;53.592;10.184;2022-07-09T21:28:17;101874.66;;;14.82;100.00
16016;BME280;8112;53.592;10.184;2022-07-09T21:33:21;101891.63;;;14.79;100.00
16016;BME280;8112;53.592;10.184;2022-07-09T21:38:23;101889.22;;;14.75;100.00
16016;BME280;8112;53.592;10.184;2022-07-09T21:43:24;101885.56;;;14.77;100.00
16016;BME280;8112;53.592;10.184;2022-07-09T21:48:27;101885.88;;;14.87;100.00
16016;BME280;8112;53.592;10.184;2022-07-09T21:53:30;101878.16;;;14.82;100.00
16016;BME280;8112;53.592;10.184;2022-07-09T21:58:32;101875.50;;;14.82;100.00
16016;BME280;8112;53.592;10.184;2022-07-09T22:03:35;101892.63;;;14.93;100.00
16016;BME280;8112;53.592;10.184;2022-07-09T22:08:36;101872.94;;;14.34;100.00
16016;BME280;8112;53.592;10.184;2022-07-09T22:13:38;101889.78;;;14.17;100.00
16016;BME280;8112;53.592;10.184;2022-07-09T22:18:45;101874.66;;;14.03;100.00
16016;BME280;8112;53.592;10.184;2022-07-09T22:23:46;101871.50;;;14.13;100.00
16016;BME280;8112;53.592;10.184;2022-07-09T22:28:48;101872.44;;;14.11;100.00
16016;BME280;8112;53.592;10.184;2022-07-09T22:33:51;101866.59;;;14.21;100.00
16016;BME280;8112;53.592;10.184;2022-07-09T22:38:53;101860.44;;;14.36;100.00
16016;BME280;8112;53.592;10.184;2022-07-09T22:43:55;101868.97;;;14.42;100.00
16016;BME280;8112;53.592;10.184;2022-07-09T22:48:58;101857.84;;;14.51;100.00
16016;BME280;8112;53.592;10.184;2022-07-09T22:54:00;101859.88;;;14.62;100.00
16016;BME280;8112;53.592;10.184;2022-07-09T22:59:02;101863.88;;;14.85;100.00
16016;BME280;8112;53.592;10.184;2022-07-09T23:04:05;101854.66;;;14.76;100.00
16016;BME280;8112;53.592;10.184;2022-07-09T23:09:08;101855.19;;;14.51;100.00
16016;BME280;8112;53.592;10.184;2022-07-09T23:14:10;101850.00;;;14.33;100.00
16016;BME280;8112;53.592;10.184;2022-07-09T23:19:13;101854.81;;;14.27;100.00
16016;BME280;8112;53.592;10.184;2022-07-09T23:24:15;101849.16;;;14.33;100.00
16016;BME280;8112;53.592;10.184;2022-07-09T23:29:18;101848.13;;;14.35;100.00
16016;BME280;8112;53.592;10.184;2022-07-09T23:34:21;101836.56;;;14.36;100.00
16016;BME280;8112;53.592;10.184;2022-07-09T23:39:23;101838.53;;;14.33;100.00
16016;BME280;8112;53.592;10.184;2022-07-09T23:44:25;101836.94;;;14.30;100.00
16016;BME280;8112;53.592;10.184;2022-07-09T23:49:28;101840.41;;;14.47;100.00
16016;BME280;8112;53.592;10.184;2022-07-09T23:54:30;101830.38;;;14.52;100.00
16016;BME280;8112;53.592;10.184;2022-07-09T23:59:34;101822.44;;;14.52;100.00
